Etusivu
METAR-TAF:

METAR-TAF

Lentoasemat :

Brown Field Municipal Airport

San Diego, Kalifornia, Yhdysvallat

Leveyspiiri: 32-34-31N, Pituuspiiri: 116-59-35W, korkeus merenpinnasta: 164 m

Tämänhetkinen sää

Tämä raportti tehtiin 44 minuuttia sitten, kello 11.00 UTC
tyyntä
Lämpötila 18°C
Kosteus 77%
Ilmanpaine 1014 hPa
Näkyvyys: 16.1 km
Pilvistä 1000 ft:n korkeudessa

METAR: KSDM 291100Z AUTO 00000KT 10SM OVC010 18/14 A2994 RMK AO2 T01780144

Aika: 04:44 (11:44 UTC)


TAF: puuttuu

Säähavainnot ja -ennusteet yli 4000 lentoasemalta (METAR- ja TAF-raportit).

Käytössä olevat sääasemat on merkitty karttaan keltaisilla ja punaisilla pisteillä.

Aseta hiiri pisteen päälle nähdäksesi sääaseman nimen.

Klikkaa sitten nähdäksesi säähavainnot ja -ennusteet.

Kartan vaihtaminen: klikkaa mustalla rastilla varustettuja vihreitä pisteitä, niin voit zoomata sisään; viivalla varustettua vihreää pistettä, niin voit zoomata ulos tai vihreitä nuolia, niin pääset viereisille kartoille.


METAR-TAF: